Time;durP1;ratioP1;P1;durP2;ratioP2;P2;SDS_P1;SDS_P2;PMS_P1;PMS_P2;Temp;Humidity;BMP_temperature;BMP_pressure;BME280_temperature;BME280_humidity;BME280_pressure;Samples;Min_cycle;Max_cycle;Signal;HPM_P1;HPM_P2
2023/09/24 00:00:25;;;;;;;15.00;1.87;;;12.50;99.90;;;;;;1897528;75;25651;-87
2023/09/24 00:03:14;;;;;;;12.57;1.40;;;12.50;99.90;;;;;;1904085;74;25195;-87
2023/09/24 00:06:08;;;;;;;9.17;1.57;;;12.60;99.90;;;;;;1899151;74;25350;-87
2023/09/24 00:08:56;;;;;;;6.67;1.50;;;12.60;99.90;;;;;;1902120;75;25317;-87
2023/09/24 00:11:45;;;;;;;17.47;1.47;;;12.60;99.90;;;;;;1899011;74;25185;-87
2023/09/24 00:17:17;;;;;;;10.03;1.50;;;12.50;99.90;;;;;;1936578;72;27588;-86
2023/09/24 00:22:47;;;;;;;5.97;1.30;;;12.50;99.90;;;;;;1937955;72;26873;-87
2023/09/24 00:25:35;;;;;;;8.20;1.40;;;12.50;99.90;;;;;;1911300;75;25951;-86
2023/09/24 00:28:23;;;;;;;10.27;1.63;;;12.40;99.90;;;;;;1898493;75;25228;-87
2023/09/24 00:31:12;;;;;;;8.27;1.50;;;12.40;99.90;;;;;;1903067;75;25151;-88
2023/09/24 00:34:00;;;;;;;4.80;1.43;;;12.30;99.90;;;;;;1896915;75;25296;-88
2023/09/24 00:36:50;;;;;;;10.43;1.40;;;12.30;99.90;;;;;;1896473;75;25711;-88
2023/09/24 00:42:19;;;;;;;6.20;1.33;;;12.20;99.90;;;;;;1927380;72;27165;-86
2023/09/24 00:45:14;;;;;;;10.53;1.80;;;12.20;99.90;;;;;;1814790;79;25659;-86
2023/09/24 00:48:04;;;;;;;7.13;1.80;;;12.10;99.90;;;;;;1825657;77;25237;-86
2023/09/24 00:50:53;;;;;;;10.37;1.50;;;12.10;99.90;;;;;;1814632;77;25191;-86
2023/09/24 00:56:26;;;;;;;3.47;1.20;;;12.10;99.90;;;;;;1890950;74;27584;-86
2023/09/24 01:01:57;;;;;;;6.47;1.37;;;12.00;99.90;;;;;;1915983;72;27082;-86
2023/09/24 01:04:47;;;;;;;3.40;1.20;;;12.00;99.90;;;;;;1913450;74;25206;-86
2023/09/24 01:07:36;;;;;;;7.90;1.40;;;12.00;99.90;;;;;;1892733;73;25697;-86
2023/09/24 01:13:10;;;;;;;4.40;1.00;;;11.90;99.90;;;;;;1936827;72;27013;-86
2023/09/24 01:16:00;;;;;;;7.53;1.40;;;11.80;99.90;;;;;;1923676;73;25150;-86
2023/09/24 01:18:49;;;;;;;3.43;1.10;;;11.90;99.90;;;;;;1921223;73;25191;-87
2023/09/24 01:21:38;;;;;;;8.20;1.37;;;11.90;99.90;;;;;;1928147;73;25253;-86
2023/09/24 01:24:29;;;;;;;6.30;1.33;;;11.80;99.90;;;;;;1864546;75;25214;-87
2023/09/24 01:27:17;;;;;;;5.83;1.20;;;11.70;99.90;;;;;;1905499;73;25175;-86
2023/09/24 01:30:07;;;;;;;10.03;1.10;;;11.70;99.90;;;;;;1916429;73;25243;-86
2023/09/24 01:32:57;;;;;;;2.60;1.13;;;11.60;99.90;;;;;;1856140;76;25219;-86
2023/09/24 01:35:46;;;;;;;2.73;0.90;;;11.60;99.90;;;;;;1913308;73;25647;-86
2023/09/24 01:41:14;;;;;;;8.10;1.30;;;11.60;99.90;;;;;;1922847;73;27079;-86
2023/09/24 01:44:03;;;;;;;2.53;0.90;;;11.60;99.90;;;;;;1900395;75;25349;-86
2023/09/24 01:46:51;;;;;;;2.37;1.00;;;11.50;99.90;;;;;;1898170;75;25357;-86
2023/09/24 01:49:40;;;;;;;6.80;1.13;;;11.50;99.90;;;;;;1893299;75;25229;-86
2023/09/24 01:52:29;;;;;;;3.53;0.83;;;11.40;99.90;;;;;;1900049;75;25758;-86
2023/09/24 01:55:19;;;;;;;2.60;0.90;;;11.40;99.90;;;;;;1908241;75;25229;-87
2023/09/24 01:58:08;;;;;;;1.40;0.80;;;11.50;99.90;;;;;;1897789;75;25702;-87
2023/09/24 02:00:57;;;;;;;3.90;1.00;;;11.40;99.90;;;;;;1897643;75;25335;-87
2023/09/24 02:03:46;;;;;;;5.03;1.00;;;11.40;99.90;;;;;;1897703;75;25267;-87
2023/09/24 02:09:18;;;;;;;3.43;1.10;;;11.40;99.90;;;;;;1943692;72;26888;-86
2023/09/24 02:14:49;;;;;;;2.73;1.00;;;11.30;99.90;;;;;;1938072;72;27040;-87
2023/09/24 02:20:23;;;;;;;2.07;0.80;;;11.20;99.90;;;;;;1950299;72;26930;-86
2023/09/24 02:23:12;;;;;;;2.43;0.70;;;11.20;99.90;;;;;;1950132;72;25306;-87
2023/09/24 02:26:00;;;;;;;7.40;1.10;;;11.20;99.90;;;;;;1963096;72;25206;-87
2023/09/24 02:28:49;;;;;;;2.60;0.80;;;11.20;99.90;;;;;;1962219;72;25265;-87
2023/09/24 02:31:38;;;;;;;4.70;0.80;;;11.20;99.90;;;;;;1956913;72;25251;-87
2023/09/24 02:34:29;;;;;;;1.57;0.77;;;11.20;99.90;;;;;;1952621;72;25211;-87
2023/09/24 02:39:58;;;;;;;1.60;0.73;;;11.20;99.90;;;;;;1927772;72;27026;-86
2023/09/24 02:42:48;;;;;;;1.80;0.70;;;11.10;99.90;;;;;;1897514;74;25305;-86
2023/09/24 02:45:37;;;;;;;3.67;1.10;;;11.10;99.90;;;;;;1915793;74;25196;-85
2023/09/24 02:48:26;;;;;;;4.93;1.63;;;11.10;99.90;;;;;;1916293;74;25230;-88
2023/09/24 02:51:15;;;;;;;8.67;2.13;;;11.00;99.90;;;;;;1892595;74;25709;-88
2023/09/24 02:56:43;;;;;;;13.77;6.53;;;10.90;99.90;;;;;;1933946;72;27180;-86
2023/09/24 03:02:11;;;;;;;13.90;5.27;;;10.90;99.90;;;;;;1938526;72;27133;-86
2023/09/24 03:05:00;;;;;;;7.73;3.33;;;10.80;99.90;;;;;;1898724;75;25690;-87
2023/09/24 03:10:33;;;;;;;8.57;3.47;;;10.70;99.90;;;;;;1894119;74;26946;-86
2023/09/24 03:13:22;;;;;;;8.33;3.30;;;10.60;99.90;;;;;;1856497;75;25282;-86
2023/09/24 03:16:10;;;;;;;5.17;2.23;;;10.60;99.90;;;;;;1863122;75;25747;-86
2023/09/24 03:18:59;;;;;;;1.93;1.43;;;10.50;99.90;;;;;;1843824;77;25167;-86
2023/09/24 03:21:48;;;;;;;4.10;2.00;;;10.50;99.90;;;;;;1866529;77;25315;-86
2023/09/24 03:24:38;;;;;;;6.63;2.50;;;10.50;99.90;;;;;;1818240;78;25776;-86
2023/09/24 03:27:27;;;;;;;12.77;4.47;;;10.50;99.90;;;;;;1861289;77;25329;-86
2023/09/24 03:30:17;;;;;;;11.27;5.37;;;10.50;99.90;;;;;;1844391;76;25240;-86
2023/09/24 03:33:06;;;;;;;11.90;4.00;;;10.40;99.90;;;;;;1852668;77;25288;-87
2023/09/24 03:38:38;;;;;;;18.60;6.83;;;10.40;99.90;;;;;;1945919;72;27276;-86
2023/09/24 03:41:27;;;;;;;20.60;8.17;;;10.40;99.90;;;;;;1897000;74;25214;-86
2023/09/24 03:44:16;;;;;;;23.67;10.90;;;10.30;99.90;;;;;;1864768;76;25230;-86
2023/09/24 03:47:04;;;;;;;30.77;13.70;;;10.30;99.90;;;;;;1871053;76;25692;-86
2023/09/24 03:49:52;;;;;;;21.83;10.43;;;10.30;99.90;;;;;;1831571;77;25360;-86
2023/09/24 03:52:42;;;;;;;28.47;10.53;;;10.30;99.90;;;;;;1878881;76;25565;-86
2023/09/24 03:55:30;;;;;;;21.90;9.97;;;10.20;99.90;;;;;;1868470;76;25664;-86
2023/09/24 03:58:19;;;;;;;22.53;9.10;;;10.20;99.90;;;;;;1869127;76;25289;-86
2023/09/24 04:01:12;;;;;;;22.63;9.43;;;10.20;99.90;;;;;;1881206;76;25291;-86
2023/09/24 04:04:02;;;;;;;19.20;8.53;;;10.10;99.90;;;;;;1854935;76;25701;-87
2023/09/24 04:06:51;;;;;;;14.93;8.03;;;10.00;99.90;;;;;;1870411;75;25192;-87
2023/09/24 04:09:40;;;;;;;14.73;7.80;;;10.00;99.90;;;;;;1871441;76;25235;-87
2023/09/24 04:12:33;;;;;;;13.93;6.50;;;10.00;99.90;;;;;;1876868;76;25802;-87
2023/09/24 04:18:01;;;;;;;28.67;11.83;;;10.00;99.90;;;;;;1943060;72;27105;-85
2023/09/24 04:20:52;;;;;;;29.73;13.67;;;9.90;99.90;;;;;;1914319;73;25277;-88
2023/09/24 04:23:41;;;;;;;22.90;9.67;;;9.90;99.90;;;;;;1908578;73;25252;-86
2023/09/24 04:26:30;;;;;;;24.90;11.37;;;9.90;99.90;;;;;;1941736;73;25215;-86
2023/09/24 04:29:18;;;;;;;21.93;12.00;;;10.00;99.90;;;;;;1940183;73;25719;-86
2023/09/24 04:32:07;;;;;;;11.80;7.47;;;9.90;99.90;;;;;;1919231;72;25241;-86
2023/09/24 04:34:55;;;;;;;12.70;5.57;;;10.10;99.90;;;;;;1927212;73;25254;-86
2023/09/24 04:37:44;;;;;;;30.93;11.13;;;10.10;99.90;;;;;;1918922;73;25707;-86
2023/09/24 04:40:34;;;;;;;35.90;13.30;;;10.00;99.90;;;;;;1934358;73;25208;-86
2023/09/24 04:43:22;;;;;;;31.23;12.37;;;10.00;99.90;;;;;;1920034;72;25689;-86
2023/09/24 04:46:11;;;;;;;18.90;7.23;;;9.90;99.90;;;;;;1912320;74;25296;-86
2023/09/24 04:51:45;;;;;;;13.83;6.40;;;9.90;99.90;;;;;;1937078;72;27054;-86
2023/09/24 04:54:33;;;;;;;21.13;6.60;;;9.80;99.90;;;;;;1912327;73;25989;-86
2023/09/24 04:57:21;;;;;;;14.50;6.77;;;9.80;99.90;;;;;;1870878;76;25358;-86
2023/09/24 05:00:13;;;;;;;8.07;3.77;;;9.80;99.90;;;;;;1832464;76;25841;-86
2023/09/24 05:05:51;;;;;;;9.87;4.30;;;9.80;99.90;;;;;;1940191;72;27408;-86
2023/09/24 05:08:40;;;;;;;18.00;5.60;;;9.80;99.90;;;;;;1924243;73;25343;-86
2023/09/24 05:11:29;;;;;;;5.63;2.50;;;9.80;99.90;;;;;;1920412;73;25168;-86
2023/09/24 05:14:18;;;;;;;9.03;3.67;;;9.80;99.90;;;;;;1917263;73;25649;-86
2023/09/24 05:17:06;;;;;;;11.00;3.80;;;9.80;99.90;;;;;;1917124;73;25235;-86
2023/09/24 05:19:55;;;;;;;8.53;4.47;;;9.80;99.90;;;;;;1917005;73;25723;-86
2023/09/24 05:22:43;;;;;;;11.93;5.63;;;9.80;99.90;;;;;;1922395;73;25395;-86
2023/09/24 05:25:35;;;;;;;10.60;5.10;;;9.80;99.90;;;;;;1922106;73;25331;-86
2023/09/24 05:28:23;;;;;;;10.80;4.43;;;9.80;99.90;;;;;;1927398;73;25703;-86
2023/09/24 05:31:12;;;;;;;8.53;3.60;;;9.80;99.90;;;;;;1926190;73;25323;-86
2023/09/24 05:34:04;;;;;;;6.50;2.50;;;9.80;99.90;;;;;;1916511;73;25674;-86
2023/09/24 05:36:52;;;;;;;4.50;1.87;;;9.80;99.90;;;;;;1931648;73;25761;-86
2023/09/24 05:39:40;;;;;;;6.20;3.10;;;9.80;99.90;;;;;;1869288;75;25263;-86
2023/09/24 05:45:13;;;;;;;19.87;8.57;;;9.80;99.90;;;;;;1930089;72;27087;-86
2023/09/24 05:48:03;;;;;;;11.13;5.27;;;9.80;99.90;;;;;;1904560;74;25162;-86
2023/09/24 05:50:51;;;;;;;17.90;7.77;;;9.80;99.90;;;;;;1901801;75;25227;-86
2023/09/24 05:53:40;;;;;;;13.77;5.60;;;9.90;99.90;;;;;;1888001;74;25312;-86
2023/09/24 05:56:28;;;;;;;14.30;6.30;;;10.00;99.90;;;;;;1908939;75;25688;-86
2023/09/24 05:59:19;;;;;;;36.27;14.23;;;10.00;99.90;;;;;;1900968;74;25317;-86
2023/09/24 06:02:06;;;;;;;25.30;11.37;;;10.10;99.90;;;;;;1900265;75;25651;-86
2023/09/24 06:04:55;;;;;;;28.43;10.63;;;10.10;99.90;;;;;;1865332;75;25316;-87
2023/09/24 06:07:43;;;;;;;22.90;8.13;;;10.10;99.90;;;;;;1899859;75;25163;-87
2023/09/24 06:10:31;;;;;;;23.33;10.00;;;10.10;99.90;;;;;;1895589;75;26500;-87
2023/09/24 06:13:20;;;;;;;22.77;9.70;;;10.10;99.90;;;;;;1895885;74;25241;-87
2023/09/24 06:16:09;;;;;;;22.03;8.07;;;10.10;99.90;;;;;;1899020;75;25753;-87
2023/09/24 06:18:57;;;;;;;7.17;3.57;;;10.20;99.90;;;;;;1891427;75;25187;-87
2023/09/24 06:24:25;;;;;;;16.93;5.80;;;10.30;99.90;;;;;;1939157;72;26773;-86
2023/09/24 06:27:14;;;;;;;16.07;6.20;;;10.30;99.90;;;;;;1896992;74;25172;-86
2023/09/24 06:30:04;;;;;;;14.37;5.33;;;10.30;99.90;;;;;;1892474;75;25330;-86
2023/09/24 06:32:53;;;;;;;18.87;9.17;;;10.40;99.90;;;;;;1889186;75;25293;-86
2023/09/24 06:35:41;;;;;;;26.10;11.50;;;10.40;99.90;;;;;;1895400;75;25168;-87
2023/09/24 06:38:32;;;;;;;17.87;7.50;;;10.40;99.90;;;;;;1896634;75;25319;-86
2023/09/24 06:41:22;;;;;;;7.93;4.80;;;10.40;99.90;;;;;;1901776;75;25709;-86
2023/09/24 06:44:11;;;;;;;11.60;5.70;;;10.40;99.90;;;;;;1883382;75;25296;-86
2023/09/24 06:47:00;;;;;;;3.93;2.10;;;10.60;99.90;;;;;;1880027;75;25309;-87
2023/09/24 06:49:50;;;;;;;8.43;3.97;;;10.60;99.90;;;;;;1868339;75;25680;-87
2023/09/24 06:52:39;;;;;;;4.00;2.00;;;10.80;99.90;;;;;;1870610;75;25743;-88
2023/09/24 06:55:28;;;;;;;3.93;1.90;;;10.90;99.90;;;;;;1882395;75;25171;-87
2023/09/24 07:01:03;;;;;;;6.00;2.10;;;10.90;99.90;;;;;;1956096;72;27030;-86
2023/09/24 07:03:51;;;;;;;4.37;1.37;;;11.00;99.90;;;;;;1937491;73;25233;-86
2023/09/24 07:06:40;;;;;;;6.10;1.90;;;11.00;99.90;;;;;;1929538;73;25230;-87
2023/09/24 07:12:09;;;;;;;3.00;1.87;;;11.30;99.90;;;;;;1929812;72;27133;-86
2023/09/24 07:14:58;;;;;;;3.47;1.90;;;11.30;99.90;;;;;;1900879;75;25316;-86
2023/09/24 07:17:46;;;;;;;5.93;1.80;;;11.30;99.90;;;;;;1859221;76;25241;-85
2023/09/24 07:20:35;;;;;;;7.07;2.10;;;11.30;99.90;;;;;;1843261;76;25278;-86
2023/09/24 07:23:24;;;;;;;4.10;1.77;;;11.40;99.90;;;;;;1824980;78;25211;-85
2023/09/24 07:26:12;;;;;;;4.27;2.00;;;11.50;99.90;;;;;;1907804;74;25687;-85
2023/09/24 07:29:01;;;;;;;2.53;1.40;;;11.40;99.90;;;;;;1862413;76;25288;-88
2023/09/24 07:34:32;;;;;;;4.13;1.87;;;11.60;99.90;;;;;;1910588;72;27753;-86
2023/09/24 07:37:20;;;;;;;3.40;1.20;;;11.70;99.90;;;;;;1901320;74;25294;-86
2023/09/24 07:42:52;;;;;;;2.80;1.53;;;11.80;99.90;;;;;;1916755;72;27038;-86
2023/09/24 07:48:25;;;;;;;1.73;1.30;;;11.80;99.90;;;;;;1930435;72;27171;-86
2023/09/24 07:51:16;;;;;;;5.57;1.40;;;12.00;99.90;;;;;;1900918;73;25802;-86
2023/09/24 07:54:04;;;;;;;2.53;1.20;;;12.00;99.90;;;;;;1901005;74;25906;-86
2023/09/24 07:56:53;;;;;;;4.07;1.43;;;12.10;99.90;;;;;;1905577;73;25220;-86
2023/09/24 07:59:42;;;;;;;2.23;1.20;;;12.20;99.90;;;;;;1905685;75;25167;-86
2023/09/24 08:02:31;;;;;;;4.77;1.20;;;12.30;99.90;;;;;;1904630;73;25227;-88
2023/09/24 08:05:20;;;;;;;3.30;0.90;;;12.30;99.90;;;;;;1904760;73;25288;-86
2023/09/24 08:10:54;;;;;;;1.47;0.80;;;12.50;99.90;;;;;;2022574;69;27401;-86
2023/09/24 08:13:43;;;;;;;2.03;0.80;;;12.70;99.90;;;;;;1998165;71;25251;-86
2023/09/24 08:16:32;;;;;;;1.27;0.80;;;12.70;99.90;;;;;;1953215;72;25201;-86
2023/09/24 08:19:20;;;;;;;1.77;1.00;;;12.70;99.90;;;;;;2011195;70;25140;-86
2023/09/24 08:22:09;;;;;;;1.97;0.90;;;12.80;99.90;;;;;;2002222;71;25794;-86
2023/09/24 08:27:44;;;;;;;0.90;0.70;;;13.20;99.90;;;;;;1952107;72;26998;-86
2023/09/24 08:30:34;;;;;;;0.70;0.70;;;13.10;99.90;;;;;;1927523;73;25314;-86
2023/09/24 08:33:22;;;;;;;0.50;0.50;;;13.00;99.90;;;;;;1936422;73;25174;-86
2023/09/24 08:36:12;;;;;;;2.20;0.60;;;13.10;99.90;;;;;;1924868;73;25321;-86
2023/09/24 08:39:03;;;;;;;3.20;1.60;;;13.10;99.90;;;;;;1925030;73;25815;-86
2023/09/24 08:41:53;;;;;;;1.20;1.00;;;13.00;99.90;;;;;;1933861;73;25319;-87
2023/09/24 08:44:42;;;;;;;2.30;1.20;;;13.10;99.90;;;;;;1906028;73;25321;-87
2023/09/24 08:47:33;;;;;;;4.23;1.70;;;13.20;99.90;;;;;;1917706;74;25723;-87
2023/09/24 08:50:22;;;;;;;2.97;1.90;;;13.40;99.90;;;;;;1899349;73;25751;-88
2023/09/24 08:53:12;;;;;;;6.87;2.50;;;13.70;99.90;;;;;;1906146;74;25239;-87
2023/09/24 08:56:01;;;;;;;1.93;0.90;;;13.90;99.90;;;;;;1889540;73;25266;-86
2023/09/24 09:01:34;;;;;;;1.50;1.40;;;13.80;99.90;;;;;;1932055;72;27597;-86
2023/09/24 09:04:22;;;;;;;1.53;1.10;;;13.60;99.90;;;;;;1865818;76;25331;-86
2023/09/24 09:07:12;;;;;;;2.53;0.93;;;13.70;99.90;;;;;;1913699;73;25626;-86
2023/09/24 09:10:03;;;;;;;1.73;1.00;;;13.70;99.90;;;;;;1909795;74;25223;-86
2023/09/24 09:12:51;;;;;;;2.57;1.00;;;13.80;99.90;;;;;;1916022;74;25418;-87
2023/09/24 09:18:24;;;;;;;7.77;2.27;;;14.00;99.90;;;;;;1938037;72;27072;-86
2023/09/24 09:21:17;;;;;;;8.47;1.30;;;14.40;99.90;;;;;;1898661;74;25804;-86
2023/09/24 09:24:06;;;;;;;1.27;1.10;;;14.50;99.90;;;;;;1900895;75;25307;-87
2023/09/24 09:26:58;;;;;;;1.53;1.10;;;14.30;99.90;;;;;;1901014;75;25850;-87
2023/09/24 09:29:48;;;;;;;2.10;1.10;;;14.50;99.90;;;;;;1901499;75;25190;-86
2023/09/24 09:32:38;;;;;;;1.67;1.43;;;14.70;99.90;;;;;;1893788;75;25340;-86
2023/09/24 09:35:32;;;;;;;5.73;0.83;;;14.60;99.90;;;;;;1842680;77;25274;-87
2023/09/24 09:38:21;;;;;;;0.60;0.60;;;14.40;99.90;;;;;;1899868;74;25337;-87
2023/09/24 09:41:09;;;;;;;1.13;0.70;;;14.60;99.90;;;;;;1862903;76;25153;-86
2023/09/24 09:44:00;;;;;;;0.83;0.83;;;14.70;99.90;;;;;;1871372;75;25306;-86
2023/09/24 09:46:50;;;;;;;0.90;0.90;;;14.80;99.90;;;;;;1872283;75;25219;-87
2023/09/24 09:52:23;;;;;;;2.20;1.10;;;14.80;99.90;;;;;;1938295;72;26997;-86
2023/09/24 09:55:12;;;;;;;1.83;1.00;;;14.80;99.90;;;;;;1896373;75;25221;-86
2023/09/24 09:58:02;;;;;;;2.13;1.50;;;15.00;99.90;;;;;;1890340;75;25335;-87
2023/09/24 10:03:34;;;;;;;0.63;0.60;;;15.10;99.90;;;;;;1939240;72;27635;-87
2023/09/24 10:06:23;;;;;;;0.90;0.90;;;14.70;99.90;;;;;;1933403;73;25294;-87
2023/09/24 10:12:34;;;;;;;0.77;0.50;;;15.30;99.90;;;;;;1925795;72;27018;-87
2023/09/24 10:15:27;;;;;;;1.63;0.50;;;15.10;99.90;;;;;;1912317;73;25765;-87
2023/09/24 10:21:07;;;;;;;1.33;0.53;;;15.00;99.90;;;;;;2025023;69;27066;-87
2023/09/24 10:23:55;;;;;;;0.50;0.50;;;15.10;99.90;;;;;;1973842;72;25206;-87
2023/09/24 10:30:05;;;;;;;2.73;0.90;;;15.40;99.90;;;;;;1937962;72;27714;-87
2023/09/24 10:32:54;;;;;;;1.53;0.57;;;15.50;99.90;;;;;;1903592;73;25706;-87
2023/09/24 10:35:43;;;;;;;0.53;0.53;;;15.20;99.90;;;;;;1901488;75;25236;-87
2023/09/24 10:41:27;;;;;;;0.70;0.70;;;15.10;99.90;;;;;;1931787;72;27265;-87
2023/09/24 10:44:27;;;;;;;0.50;0.50;;;15.20;99.90;;;;;;1909173;74;25270;-87
2023/09/24 10:47:30;;;;;;;0.73;0.60;;;15.40;99.90;;;;;;1911650;75;25249;-88
2023/09/24 10:50:22;;;;;;;0.57;0.43;;;15.40;99.90;;;;;;1900219;75;25212;-88
2023/09/24 10:53:11;;;;;;;1.67;0.50;;;15.40;99.90;;;;;;1883768;75;25726;-87
2023/09/24 10:55:59;;;;;;;0.67;0.57;;;15.60;99.90;;;;;;1904101;75;25219;-89
2023/09/24 10:58:51;;;;;;;0.50;0.50;;;15.50;99.90;;;;;;1899384;74;25270;-87
2023/09/24 11:01:40;;;;;;;0.73;0.60;;;15.30;99.90;;;;;;1903625;75;25788;-88
2023/09/24 11:07:13;;;;;;;3.07;1.00;;;15.40;99.90;;;;;;1934443;72;27058;-87
2023/09/24 11:10:02;;;;;;;0.77;0.77;;;15.40;99.90;;;;;;1934109;73;25287;-88
2023/09/24 11:12:52;;;;;;;2.30;0.83;;;15.50;99.90;;;;;;1934679;73;25303;-87
2023/09/24 11:15:42;;;;;;;2.87;0.70;;;15.50;99.90;;;;;;1917051;73;25171;-88
2023/09/24 11:18:32;;;;;;;0.87;0.57;;;15.30;99.90;;;;;;1917972;73;25244;-88
2023/09/24 11:21:21;;;;;;;0.80;0.80;;;15.20;99.90;;;;;;1941393;73;25662;-88
2023/09/24 11:24:20;;;;;;;0.80;0.67;;;15.20;99.90;;;;;;1928033;73;25677;-87
2023/09/24 11:27:09;;;;;;;0.70;0.70;;;15.30;99.90;;;;;;1928866;73;25705;-87
2023/09/24 11:29:58;;;;;;;1.33;0.87;;;15.40;99.90;;;;;;1934539;73;25305;-87
2023/09/24 11:32:48;;;;;;;0.60;0.60;;;15.40;99.90;;;;;;1917909;73;25315;-87
2023/09/24 11:38:29;;;;;;;0.47;0.47;;;15.10;99.90;;;;;;1936872;72;27095;-88
2023/09/24 11:41:18;;;;;;;1.67;0.60;;;15.20;99.90;;;;;;1906707;75;25726;-87
2023/09/24 11:44:07;;;;;;;1.03;0.80;;;15.40;99.90;;;;;;1890260;75;25238;-88
2023/09/24 11:46:55;;;;;;;0.80;0.70;;;15.50;99.90;;;;;;1864226;76;25323;-88
2023/09/24 11:49:43;;;;;;;2.40;0.80;;;15.70;99.90;;;;;;1840954;78;25679;-88
2023/09/24 11:55:17;;;;;;;0.50;0.50;;;15.70;99.90;;;;;;1939493;72;27078;-88
2023/09/24 11:58:06;;;;;;;3.60;0.70;;;15.70;99.90;;;;;;1863285;76;25239;-87
2023/09/24 12:00:56;;;;;;;0.60;0.60;;;15.60;99.90;;;;;;1844026;76;25277;-87
2023/09/24 12:03:45;;;;;;;0.60;0.60;;;15.60;99.90;;;;;;1864901;76;25300;-88
2023/09/24 12:06:35;;;;;;;0.70;0.70;;;15.60;99.90;;;;;;1872942;76;25328;-88
2023/09/24 12:09:23;;;;;;;1.00;0.70;;;15.70;99.90;;;;;;1874607;76;25643;-88
2023/09/24 12:12:11;;;;;;;0.60;0.60;;;15.60;99.90;;;;;;1825944;78;25734;-87
2023/09/24 12:15:00;;;;;;;2.60;0.70;;;15.60;99.90;;;;;;1815302;78;25337;-88
2023/09/24 12:17:54;;;;;;;1.07;0.57;;;15.70;99.90;;;;;;1906610;74;25979;-88
2023/09/24 12:23:18;;;;;;;1.27;0.80;;;15.60;99.90;;;;;;1926684;72;27227;-87
2023/09/24 12:26:06;;;;;;;1.03;0.67;;;15.50;99.90;;;;;;1909311;74;25397;-88
2023/09/24 12:28:55;;;;;;;0.97;0.57;;;15.70;99.90;;;;;;1912495;74;25364;-88
2023/09/24 12:31:44;;;;;;;0.57;0.57;;;15.60;99.90;;;;;;1904334;74;25238;-88
2023/09/24 12:34:32;;;;;;;1.03;0.73;;;15.70;99.90;;;;;;1906771;74;25325;-88
2023/09/24 12:40:06;;;;;;;1.43;0.77;;;15.80;99.90;;;;;;1954109;72;27098;-87
2023/09/24 12:42:52;;;;;;;0.90;0.80;;;15.70;99.90;;;;;;1906119;73;25323;-89
2023/09/24 12:48:20;;;;;;;1.53;0.70;;;15.60;99.90;;;;;;1945759;72;27080;-87
2023/09/24 12:51:09;;;;;;;0.70;0.70;;;15.70;99.90;;;;;;1917923;72;25940;-88
2023/09/24 12:53:57;;;;;;;0.80;0.80;;;15.70;99.90;;;;;;1918946;73;25172;-88
2023/09/24 12:56:46;;;;;;;0.80;0.80;;;15.70;99.90;;;;;;1859278;76;25809;-88
2023/09/24 13:02:17;;;;;;;1.43;0.60;;;15.70;99.90;;;;;;1933249;72;27082;-88
2023/09/24 13:05:07;;;;;;;1.07;0.80;;;15.60;99.90;;;;;;1907629;73;25359;-88
2023/09/24 13:07:55;;;;;;;0.60;0.60;;;15.70;99.90;;;;;;1892949;73;25373;-88
2023/09/24 13:10:44;;;;;;;1.23;0.70;;;15.70;99.90;;;;;;1901718;73;25676;-88
2023/09/24 13:16:12;;;;;;;0.70;0.70;;;15.80;99.90;;;;;;1934364;72;27134;-88
2023/09/24 13:19:00;;;;;;;1.67;0.87;;;15.70;99.90;;;;;;1905881;75;25279;-87
2023/09/24 13:21:50;;;;;;;1.00;0.77;;;15.70;99.90;;;;;;1870394;76;25645;-88
2023/09/24 13:27:23;;;;;;;7.60;1.10;;;15.60;99.90;;;;;;1899894;74;27143;-88
2023/09/24 13:30:12;;;;;;;0.90;0.90;;;15.70;99.90;;;;;;1853472;76;25253;-89
2023/09/24 13:33:01;;;;;;;4.93;1.27;;;15.80;99.90;;;;;;1841802;77;25738;-88
2023/09/24 13:35:50;;;;;;;2.73;1.10;;;15.80;99.90;;;;;;1854694;77;25357;-89
2023/09/24 13:38:38;;;;;;;2.00;0.93;;;15.80;99.90;;;;;;1848069;77;25232;-89
2023/09/24 13:41:28;;;;;;;4.17;1.20;;;15.70;99.90;;;;;;1840105;77;25345;-89
2023/09/24 13:44:17;;;;;;;2.70;1.03;;;15.70;99.90;;;;;;1828321;78;25287;-89
2023/09/24 13:47:06;;;;;;;5.23;1.00;;;15.80;99.90;;;;;;1828832;78;25253;-88
2023/09/24 13:49:56;;;;;;;3.30;1.57;;;15.70;99.90;;;;;;1828217;77;25719;-91
2023/09/24 13:52:45;;;;;;;4.67;1.27;;;15.70;99.90;;;;;;1816470;78;25777;-92
2023/09/24 14:36:07;;;;;;;4.87;1.57;;;15.80;99.90;;;;;;1941339;72;27063;-90
2023/09/24 14:38:56;;;;;;;3.47;1.67;;;15.70;99.90;;;;;;1935617;73;25274;-90
2023/09/24 14:44:36;;;;;;;7.03;1.87;;;15.60;99.90;;;;;;1958627;72;27480;-90
2023/09/24 14:47:25;;;;;;;5.30;1.70;;;15.50;99.90;;;;;;1945137;73;25277;-90
2023/09/24 14:50:14;;;;;;;2.93;2.00;;;15.40;99.90;;;;;;1933018;73;25277;-90
2023/09/24 14:53:02;;;;;;;9.07;2.30;;;15.50;99.90;;;;;;1928578;73;25287;-90
2023/09/24 14:55:51;;;;;;;5.47;2.30;;;15.40;99.90;;;;;;1933071;73;25849;-90
2023/09/24 15:01:26;;;;;;;6.07;2.47;;;15.20;99.90;;;;;;1955442;72;27063;-90
2023/09/24 15:04:16;;;;;;;6.07;2.57;;;15.20;99.90;;;;;;1926204;73;25220;-90
2023/09/24 15:07:04;;;;;;;6.93;2.17;;;15.20;99.90;;;;;;1924218;73;25809;-89
2023/09/24 15:09:53;;;;;;;5.63;3.30;;;15.10;99.90;;;;;;1947450;72;25645;-90
2023/09/24 15:12:42;;;;;;;10.00;2.90;;;15.10;99.90;;;;;;1925111;73;25617;-90
2023/09/24 15:15:30;;;;;;;5.70;2.37;;;15.00;99.90;;;;;;1937135;72;25669;-91
2023/09/24 15:18:19;;;;;;;7.40;2.50;;;14.90;99.90;;;;;;1939765;73;25182;-91
2023/09/24 15:21:13;;;;;;;5.50;2.70;;;14.90;99.90;;;;;;1923915;73;25721;-91
2023/09/24 15:24:02;;;;;;;6.67;2.80;;;15.00;99.90;;;;;;1940126;73;25168;-91
2023/09/24 15:26:51;;;;;;;5.57;2.57;;;15.00;99.90;;;;;;1941769;72;25271;-91
2023/09/24 15:29:39;;;;;;;5.37;2.70;;;15.00;99.90;;;;;;1933417;73;25183;-91
2023/09/24 15:32:27;;;;;;;9.13;2.70;;;15.00;99.90;;;;;;1932857;73;25218;-91
2023/09/24 15:35:16;;;;;;;16.03;5.10;;;14.90;99.90;;;;;;1947711;73;25173;-91
2023/09/24 15:38:06;;;;;;;17.70;5.17;;;14.80;99.90;;;;;;1925065;73;25882;-91
2023/09/24 15:54:33;;;;;;;15.07;7.27;;;14.60;99.90;;;;;;1898202;74;27058;-92
2023/09/24 16:10:30;;;;;;;8.73;4.40;;;14.40;99.90;;;;;;1839753;76;27137;-92
2023/09/24 17:12:22;;;;;;;3.90;2.10;;;13.50;99.90;;;;;;1858932;75;27082;-91
2023/09/24 17:17:52;;;;;;;8.90;2.47;;;13.50;99.90;;;;;;1936780;72;27036;-91
2023/09/24 17:20:44;;;;;;;8.50;2.70;;;13.50;99.90;;;;;;1885936;74;25262;-91
2023/09/24 17:23:32;;;;;;;6.33;2.20;;;13.50;99.90;;;;;;1842931;76;25257;-91
2023/09/24 17:26:22;;;;;;;6.10;2.90;;;13.50;99.90;;;;;;1834341;76;25304;-91
2023/09/24 18:12:16;;;;;;;14.37;3.10;;;14.00;99.90;;;;;;1933465;72;27618;-91
2023/09/24 18:15:06;;;;;;;10.77;2.67;;;14.10;99.90;;;;;;1900908;74;25812;-91
2023/09/24 18:17:55;;;;;;;11.40;2.60;;;14.10;99.90;;;;;;1862521;76;25746;-91
2023/09/24 18:34:12;;;;;;;11.83;2.50;;;14.10;99.90;;;;;;1929976;70;27196;-92
2023/09/24 19:11:34;;;;;;;5.17;2.07;;;13.90;99.90;;;;;;1858975;76;28434;-92
2023/09/24 22:30:22;;;;;;;7.43;1.80;;;14.20;99.90;;;;;;1917450;73;27109;-91
